createdAt,value
2023-04-16T00:01:59.957Z,33.83
2023-04-16T00:04:26.880Z,31.17
2023-04-16T00:06:54.499Z,33.63
2023-04-16T00:09:21.396Z,32.93
2023-04-16T00:11:48.319Z,33.67
2023-04-16T00:14:15.090Z,32.20
2023-04-16T00:16:41.865Z,34.07
2023-04-16T00:19:08.894Z,32.40
2023-04-16T00:21:36.372Z,33.50
2023-04-16T00:24:03.300Z,31.80
2023-04-16T00:26:30.120Z,31.60
2023-04-16T00:28:57.169Z,32.57
2023-04-16T00:31:31.904Z,32.70
2023-04-16T00:33:59.443Z,32.40
2023-04-16T00:36:27.784Z,31.80
2023-04-16T00:38:56.110Z,32.63
2023-04-16T00:41:23.279Z,33.77
2023-04-16T00:43:50.850Z,32.53
2023-04-16T00:46:20.444Z,33.90
2023-04-16T00:48:47.837Z,33.97
2023-04-16T00:51:15.362Z,34.17
2023-04-16T00:53:44.457Z,33.13
2023-04-16T00:56:12.701Z,35.03
2023-04-16T00:58:40.516Z,33.53
2023-04-16T01:01:07.513Z,34.27
2023-04-16T01:03:39.172Z,34.27
2023-04-16T01:06:07.217Z,33.83
2023-04-16T01:08:34.461Z,34.80
2023-04-16T01:11:02.026Z,35.20
2023-04-16T01:13:29.014Z,34.03
2023-04-16T01:15:56.100Z,34.30
2023-04-16T01:18:24.046Z,34.77
2023-04-16T01:20:51.546Z,34.77
2023-04-16T01:23:18.922Z,34.10
2023-04-16T01:25:46.654Z,33.07
2023-04-16T01:28:13.544Z,34.00
2023-04-16T01:30:40.475Z,33.60
2023-04-16T01:33:30.564Z,33.47
2023-04-16T01:35:57.449Z,34.33
2023-04-16T01:38:24.314Z,33.47
2023-04-16T01:40:55.446Z,33.17
2023-04-16T01:43:22.359Z,33.67
2023-04-16T01:45:49.281Z,32.83
2023-04-16T01:48:16.582Z,34.60
2023-04-16T01:50:43.520Z,34.60
2023-04-16T01:53:10.640Z,34.90
2023-04-16T01:55:37.447Z,34.03
2023-04-16T01:58:04.478Z,35.43
2023-04-16T02:00:34.235Z,36.93
2023-04-16T02:03:01.349Z,35.90
2023-04-16T02:05:28.751Z,35.57
2023-04-16T02:07:55.664Z,35.37
2023-04-16T02:10:22.514Z,36.63
2023-04-16T02:12:49.836Z,37.63
2023-04-16T02:15:17.092Z,36.53
2023-04-16T02:17:46.353Z,39.63
2023-04-16T02:20:13.515Z,36.80
2023-04-16T02:22:50.622Z,37.13
2023-04-16T02:25:20.621Z,36.50
2023-04-16T02:27:47.772Z,39.57
2023-04-16T02:30:24.829Z,37.80
2023-04-16T02:32:52.893Z,38.97
2023-04-16T02:35:20.931Z,37.60
2023-04-16T02:37:48.458Z,36.63
2023-04-16T02:40:15.497Z,37.53
2023-04-16T02:42:42.256Z,38.60
2023-04-16T02:45:09.947Z,38.47
2023-04-16T02:47:36.858Z,37.90
2023-04-16T02:50:04.150Z,37.43
2023-04-16T02:52:32.254Z,39.73
2023-04-16T02:54:59.311Z,41.47
2023-04-16T02:57:26.198Z,37.47
2023-04-16T02:59:53.108Z,38.83
2023-04-16T03:02:19.988Z,38.30
2023-04-16T03:04:46.870Z,38.50
2023-04-16T03:07:13.773Z,40.40
2023-04-16T03:09:40.862Z,39.57
2023-04-16T03:12:07.670Z,37.93
2023-04-16T03:14:34.528Z,40.80
2023-04-16T03:17:01.372Z,40.40
2023-04-16T03:19:28.332Z,39.27
2023-04-16T03:21:55.204Z,42.37
2023-04-16T03:24:22.248Z,38.60
2023-04-16T03:26:49.279Z,40.37
2023-04-16T03:29:16.343Z,39.63
2023-04-16T03:31:43.566Z,39.93
2023-04-16T03:34:10.788Z,40.17
2023-04-16T03:36:39.352Z,40.47
2023-04-16T03:39:06.156Z,41.70
2023-04-16T03:41:33.403Z,41.83
2023-04-16T03:44:01.037Z,40.10
2023-04-16T03:46:27.844Z,39.53
2023-04-16T03:48:54.800Z,40.93
2023-04-16T03:51:21.977Z,41.27
2023-04-16T03:53:48.833Z,43.37
2023-04-16T03:56:15.615Z,42.03
2023-04-16T03:58:42.649Z,40.30
2023-04-16T04:01:09.545Z,40.77
2023-04-16T04:03:38.016Z,41.10
2023-04-16T04:06:09.058Z,41.10
2023-04-16T04:08:36.087Z,40.83
2023-04-16T04:11:04.805Z,41.50
2023-04-16T04:13:33.166Z,41.80
2023-04-16T04:16:00.278Z,43.23
2023-04-16T04:18:28.230Z,42.77
2023-04-16T04:20:55.104Z,42.00
2023-04-16T04:23:26.005Z,40.83
2023-04-16T04:25:52.883Z,42.63
2023-04-16T04:28:19.799Z,43.53
2023-04-16T04:30:46.640Z,43.67
2023-04-16T04:33:14.023Z,42.83
2023-04-16T04:35:42.016Z,42.87
2023-04-16T04:38:09.117Z,43.47
2023-04-16T04:40:36.149Z,43.33
2023-04-16T04:43:04.057Z,43.60
2023-04-16T04:45:32.096Z,43.47
2023-04-16T04:47:59.170Z,43.13
2023-04-16T04:50:26.318Z,41.97
2023-04-16T04:52:53.174Z,43.50
2023-04-16T04:55:20.042Z,43.27
2023-04-16T04:57:47.087Z,42.87
2023-04-16T05:00:14.100Z,41.40
2023-04-16T05:02:50.249Z,42.87
2023-04-16T05:05:17.236Z,43.53
2023-04-16T05:07:44.584Z,42.07
2023-04-16T05:10:11.412Z,44.67
2023-04-16T05:12:38.283Z,43.13
2023-04-16T05:15:05.627Z,42.87
2023-04-16T05:17:32.436Z,44.67
2023-04-16T05:20:00.285Z,42.27
2023-04-16T05:22:27.086Z,42.97
2023-04-16T05:24:53.841Z,41.57
2023-04-16T05:27:20.595Z,43.63
2023-04-16T05:29:47.349Z,44.17
2023-04-16T05:32:14.356Z,43.87
2023-04-16T05:34:41.197Z,44.10
2023-04-16T05:37:07.957Z,43.90
2023-04-16T05:39:34.699Z,45.40
2023-04-16T05:42:01.556Z,45.27
2023-04-16T05:44:28.359Z,44.23
2023-04-16T05:46:55.181Z,44.47
2023-04-16T05:49:24.656Z,43.20
2023-04-16T05:51:51.530Z,44.97
2023-04-16T05:54:18.338Z,44.23
2023-04-16T05:56:45.132Z,44.90
2023-04-16T05:59:12.117Z,44.07
2023-04-16T06:01:39.088Z,44.77
2023-04-16T06:04:05.974Z,42.93
2023-04-16T06:06:32.944Z,44.23
2023-04-16T06:08:59.730Z,44.20
2023-04-16T06:11:27.560Z,44.10
2023-04-16T06:13:54.428Z,44.77
2023-04-16T06:16:21.235Z,43.30
2023-04-16T06:18:48.191Z,45.23
2023-04-16T06:21:15.697Z,43.90
2023-04-16T06:23:42.491Z,44.23
2023-04-16T06:26:09.300Z,45.93
2023-04-16T06:28:36.121Z,44.87
2023-04-16T06:31:03.147Z,43.33
2023-04-16T06:33:30.062Z,44.47
2023-04-16T06:35:56.883Z,44.10
2023-04-16T06:38:23.705Z,44.53
2023-04-16T06:40:50.629Z,45.40
2023-04-16T06:43:17.963Z,46.57
2023-04-16T06:45:45.339Z,44.70
2023-04-16T06:48:12.165Z,44.87
2023-04-16T06:50:39.020Z,45.10
2023-04-16T06:53:05.906Z,44.40
2023-04-16T06:55:32.863Z,47.97
2023-04-16T06:57:59.900Z,46.87
2023-04-16T07:00:26.758Z,44.70
2023-04-16T07:02:55.147Z,44.47
2023-04-16T07:05:23.186Z,45.40
2023-04-16T07:07:50.089Z,45.73
2023-04-16T07:10:17.149Z,46.23
2023-04-16T07:12:44.054Z,45.33
2023-04-16T07:15:11.205Z,45.40
2023-04-16T07:17:38.164Z,47.20
2023-04-16T07:20:06.093Z,45.87
2023-04-16T07:22:32.842Z,48.13
2023-04-16T07:24:59.616Z,47.07
2023-04-16T07:27:26.462Z,48.27
2023-04-16T07:29:54.754Z,45.97
2023-04-16T07:32:22.723Z,45.70
2023-04-16T07:34:49.532Z,46.10
2023-04-16T07:37:16.374Z,45.43
2023-04-16T07:39:43.199Z,44.50
2023-04-16T07:42:10.111Z,44.30
2023-04-16T07:44:37.083Z,42.63
2023-04-16T07:47:05.561Z,42.73
2023-04-16T07:49:32.660Z,44.43
2023-04-16T07:51:59.526Z,42.77
2023-04-16T07:54:28.856Z,42.73
2023-04-16T07:56:55.930Z,42.23
2023-04-16T07:59:24.254Z,45.33
2023-04-16T08:01:53.803Z,43.73
2023-04-16T08:04:25.069Z,42.23
2023-04-16T08:06:52.656Z,41.63
2023-04-16T08:09:21.698Z,41.70
2023-04-16T08:11:49.908Z,41.40
2023-04-16T08:14:17.511Z,40.57
2023-04-16T08:16:44.587Z,40.13
2023-04-16T08:19:11.656Z,39.53
2023-04-16T08:21:38.981Z,39.03
2023-04-16T08:24:06.044Z,38.17
2023-04-16T08:26:32.822Z,38.70
2023-04-16T08:28:59.636Z,38.30
2023-04-16T08:31:26.688Z,38.10
2023-04-16T08:33:53.617Z,39.30
2023-04-16T08:36:20.814Z,37.00
2023-04-16T08:38:47.688Z,37.80
2023-04-16T08:41:15.133Z,35.93
2023-04-16T08:43:45.180Z,37.00
2023-04-16T08:46:12.835Z,37.50
2023-04-16T08:48:43.565Z,36.00
2023-04-16T08:51:11.962Z,38.37
2023-04-16T08:54:00.242Z,35.93
2023-04-16T08:56:27.870Z,36.47
2023-04-16T08:58:55.284Z,34.93
2023-04-16T09:01:22.749Z,36.27
2023-04-16T09:03:49.966Z,34.40
2023-04-16T09:06:18.301Z,35.67
2023-04-16T09:08:46.296Z,35.40
2023-04-16T09:11:19.658Z,34.73
2023-04-16T09:13:47.656Z,34.53
2023-04-16T09:16:15.477Z,35.27
2023-04-16T09:18:42.458Z,34.20
2023-04-16T09:21:13.488Z,35.67
2023-04-16T09:23:41.164Z,35.33
2023-04-16T09:26:08.030Z,35.53
2023-04-16T09:28:45.897Z,35.77
2023-04-16T09:31:17.936Z,36.07
2023-04-16T09:34:04.950Z,36.07
2023-04-16T09:36:32.656Z,35.97
2023-04-16T09:39:00.304Z,36.03
2023-04-16T09:41:31.896Z,38.13
2023-04-16T09:44:01.778Z,35.40
2023-04-16T09:46:36.271Z,35.57
2023-04-16T09:49:15.877Z,37.37
2023-04-16T09:51:48.315Z,37.13
2023-04-16T09:54:16.168Z,37.33
2023-04-16T09:56:44.539Z,38.23
2023-04-16T09:59:18.630Z,39.20
2023-04-16T10:01:47.170Z,37.87
2023-04-16T10:04:14.239Z,37.20
2023-04-16T10:06:41.117Z,37.27
2023-04-16T10:09:12.195Z,37.97
2023-04-16T10:11:39.902Z,39.30
2023-04-16T10:14:06.940Z,38.93
2023-04-16T10:16:34.604Z,38.57
2023-04-16T10:19:02.193Z,37.97
2023-04-16T10:21:34.128Z,39.83
2023-04-16T10:24:01.746Z,37.87
2023-04-16T10:26:30.060Z,40.53
2023-04-16T10:28:58.553Z,39.60
2023-04-16T10:31:27.213Z,38.87
2023-04-16T10:33:54.537Z,41.50
2023-04-16T10:36:26.373Z,41.50
2023-04-16T10:38:58.445Z,42.67
2023-04-16T10:41:26.838Z,42.17
2023-04-16T10:44:03.250Z,41.53
2023-04-16T10:46:40.590Z,41.07
2023-04-16T10:49:23.711Z,38.13
2023-04-16T10:52:02.385Z,40.93
2023-04-16T10:54:31.037Z,38.53
2023-04-16T10:57:00.791Z,37.93
2023-04-16T10:59:34.932Z,38.93
2023-04-16T11:02:11.882Z,40.93
2023-04-16T11:04:42.398Z,41.47
2023-04-16T11:07:16.346Z,41.97
2023-04-16T11:10:05.348Z,41.83
2023-04-16T11:12:39.888Z,41.00
2023-04-16T11:15:19.426Z,41.80
2023-04-16T11:17:48.400Z,42.70
2023-04-16T11:20:19.097Z,42.07
2023-04-16T11:22:54.920Z,44.23
2023-04-16T11:25:24.174Z,41.00
2023-04-16T11:27:52.125Z,42.07
2023-04-16T11:30:28.128Z,41.37
2023-04-16T11:32:55.325Z,40.33
2023-04-16T11:35:22.302Z,40.57
2023-04-16T11:37:49.149Z,40.17
2023-04-16T11:40:15.988Z,39.10
2023-04-16T11:42:43.496Z,38.87
2023-04-16T11:45:12.192Z,39.20
2023-04-16T11:47:52.390Z,40.33
2023-04-16T11:50:23.163Z,39.03
2023-04-16T11:52:51.837Z,39.20
2023-04-16T11:55:19.541Z,39.63
2023-04-16T11:57:46.395Z,40.63
2023-04-16T12:00:14.314Z,39.83
2023-04-16T12:02:52.276Z,40.43
2023-04-16T12:05:35.978Z,39.23
2023-04-16T12:08:05.500Z,41.63
2023-04-16T12:10:37.404Z,40.90
2023-04-16T12:13:12.521Z,37.70
2023-04-16T12:15:53.156Z,38.00
2023-04-16T12:18:22.971Z,36.73
2023-04-16T12:20:51.277Z,36.80
2023-04-16T12:23:23.790Z,38.57
2023-04-16T12:25:52.000Z,38.03
2023-04-16T12:28:32.618Z,36.23
2023-04-16T12:30:59.834Z,37.80
2023-04-16T12:33:26.741Z,36.67
2023-04-16T12:35:54.056Z,35.67
2023-04-16T12:38:22.835Z,35.50
2023-04-16T12:40:51.029Z,37.50
2023-04-16T12:43:18.211Z,38.60
2023-04-16T12:45:45.277Z,36.90
2023-04-16T12:48:12.057Z,35.67
2023-04-16T12:50:39.731Z,34.80
2023-04-16T12:53:06.661Z,35.07
2023-04-16T12:55:33.474Z,34.60
2023-04-16T12:58:00.299Z,35.40
2023-04-16T13:00:27.202Z,35.77
2023-04-16T13:02:54.184Z,35.00
2023-04-16T13:05:21.432Z,36.20
2023-04-16T13:07:48.308Z,37.10
2023-04-16T13:10:15.372Z,37.23
2023-04-16T13:12:42.124Z,36.40
2023-04-16T13:15:09.796Z,34.60
2023-04-16T13:17:36.691Z,35.23
2023-04-16T13:20:03.634Z,35.33
2023-04-16T13:22:30.722Z,35.37
2023-04-16T13:24:57.597Z,35.37
2023-04-16T13:27:24.457Z,35.27
2023-04-16T13:29:51.425Z,35.17
2023-04-16T13:32:18.928Z,35.17
2023-04-16T13:34:46.030Z,35.50
2023-04-16T13:37:13.115Z,36.83
2023-04-16T13:39:40.115Z,36.50
2023-04-16T13:42:07.024Z,37.27
2023-04-16T13:44:33.960Z,37.10
2023-04-16T13:47:01.008Z,36.03
2023-04-16T13:49:27.852Z,35.33
2023-04-16T13:51:54.693Z,35.13
2023-04-16T13:54:21.493Z,36.13
2023-04-16T13:56:50.540Z,36.60
2023-04-16T13:59:17.851Z,36.47
2023-04-16T14:01:44.708Z,35.97
2023-04-16T14:04:11.921Z,36.47
2023-04-16T14:06:38.795Z,34.80
2023-04-16T14:09:05.951Z,34.17
2023-04-16T14:11:32.821Z,35.40
2023-04-16T14:13:59.701Z,34.87
2023-04-16T14:16:27.401Z,34.53
2023-04-16T14:18:54.362Z,34.30
2023-04-16T14:21:21.250Z,34.70
2023-04-16T14:23:48.151Z,35.63
2023-04-16T14:26:15.425Z,34.13
2023-04-16T14:28:42.372Z,33.97
2023-04-16T14:31:09.359Z,35.80
2023-04-16T14:33:36.844Z,35.43
2023-04-16T14:36:04.087Z,34.87
2023-04-16T14:38:31.488Z,32.63
2023-04-16T14:41:00.181Z,33.17
2023-04-16T14:43:27.249Z,32.20
2023-04-16T14:45:54.290Z,32.43
2023-04-16T14:48:22.005Z,33.17
2023-04-16T14:50:48.962Z,33.00
2023-04-16T14:53:15.896Z,34.83
2023-04-16T14:55:42.753Z,33.97
2023-04-16T14:58:10.807Z,33.93
2023-04-16T15:00:37.950Z,34.80
2023-04-16T15:03:05.853Z,33.87
2023-04-16T15:05:33.025Z,34.00
2023-04-16T15:08:00.654Z,33.90
2023-04-16T15:10:27.749Z,31.77
2023-04-16T15:12:54.797Z,32.20
2023-04-16T15:15:21.799Z,32.40
2023-04-16T15:17:50.446Z,34.20
2023-04-16T15:20:17.635Z,35.33
2023-04-16T15:22:44.615Z,32.40
2023-04-16T15:25:11.621Z,32.57
2023-04-16T15:27:38.632Z,32.40
2023-04-16T15:30:06.586Z,36.57
2023-04-16T15:32:33.395Z,34.53
2023-04-16T15:35:01.908Z,35.73
2023-04-16T15:37:28.704Z,36.23
2023-04-16T15:39:55.460Z,35.17
2023-04-16T15:42:23.271Z,35.40
2023-04-16T15:44:50.044Z,34.23
2023-04-16T15:47:16.803Z,37.07
2023-04-16T15:49:43.682Z,35.40
2023-04-16T15:52:12.019Z,35.73
2023-04-16T15:54:38.901Z,35.17
2023-04-16T15:57:05.804Z,33.73
2023-04-16T15:59:32.903Z,35.87
2023-04-16T16:01:59.962Z,36.70
2023-04-16T16:04:28.187Z,37.97
2023-04-16T16:06:55.618Z,37.40
2023-04-16T16:09:26.400Z,36.10
2023-04-16T16:11:54.362Z,35.57
2023-04-16T16:14:22.507Z,35.53
2023-04-16T16:16:49.442Z,36.90
2023-04-16T16:19:18.889Z,36.13
2023-04-16T16:21:45.777Z,38.57
2023-04-16T16:24:12.734Z,35.47
2023-04-16T16:26:39.614Z,35.43
2023-04-16T16:29:07.187Z,35.70
2023-04-16T16:31:34.096Z,35.67
2023-04-16T16:34:01.233Z,37.13
2023-04-16T16:36:29.616Z,36.63
2023-04-16T16:38:56.975Z,37.20
2023-04-16T16:41:23.799Z,36.60
2023-04-16T16:43:51.004Z,36.70
2023-04-16T16:46:17.862Z,37.10
2023-04-16T16:48:44.674Z,36.10
2023-04-16T16:51:11.553Z,36.93
2023-04-16T16:53:38.395Z,35.93
2023-04-16T16:56:05.805Z,35.63
2023-04-16T16:58:32.849Z,35.90
2023-04-16T17:00:59.911Z,37.57
2023-04-16T17:03:26.977Z,39.60
2023-04-16T17:05:54.047Z,36.97
2023-04-16T17:08:20.879Z,36.97
2023-04-16T17:10:47.841Z,36.77
2023-04-16T17:13:19.546Z,38.70
2023-04-16T17:15:47.096Z,37.77
2023-04-16T17:18:14.114Z,39.17
2023-04-16T17:20:40.985Z,38.53
2023-04-16T17:23:08.390Z,41.20
2023-04-16T17:25:35.183Z,40.57
2023-04-16T17:28:02.724Z,38.90
2023-04-16T17:30:31.525Z,38.17
2023-04-16T17:32:58.456Z,37.43
2023-04-16T17:35:25.431Z,37.70
2023-04-16T17:37:52.264Z,37.57
2023-04-16T17:40:19.235Z,38.20
2023-04-16T17:42:46.154Z,38.50
2023-04-16T17:45:13.410Z,39.17
2023-04-16T17:47:40.666Z,37.90
2023-04-16T17:50:08.777Z,38.37
2023-04-16T17:52:37.379Z,38.83
2023-04-16T17:55:07.731Z,39.83
2023-04-16T17:57:34.609Z,40.47
2023-04-16T18:00:01.466Z,38.47
2023-04-16T18:02:40.818Z,37.27
2023-04-16T18:05:08.781Z,39.80
2023-04-16T18:07:36.381Z,38.77
2023-04-16T18:10:03.373Z,41.07
2023-04-16T18:12:30.409Z,39.93
2023-04-16T18:14:57.581Z,39.40
2023-04-16T18:17:24.458Z,39.30
2023-04-16T18:19:51.447Z,39.60
2023-04-16T18:22:18.289Z,39.63
2023-04-16T18:24:45.090Z,40.53
2023-04-16T18:29:40.192Z,40.50
2023-04-16T18:32:09.819Z,43.23
2023-04-16T18:34:38.668Z,42.07
2023-04-16T18:37:05.503Z,40.43
2023-04-16T18:39:36.658Z,40.87
2023-04-16T18:42:03.905Z,42.30
2023-04-16T18:44:30.847Z,42.30
2023-04-16T18:46:57.780Z,43.47
2023-04-16T18:49:25.278Z,43.03
2023-04-16T18:55:46.422Z,42.73
2023-04-16T18:58:13.209Z,44.07
2023-04-16T19:00:40.141Z,43.57
2023-04-16T19:03:07.535Z,41.63
2023-04-16T19:05:34.580Z,44.10
2023-04-16T19:08:01.435Z,43.83
2023-04-16T19:10:28.417Z,43.83
2023-04-16T19:12:58.628Z,45.10
2023-04-16T19:15:25.496Z,43.57
2023-04-16T19:17:52.270Z,45.30
2023-04-16T19:20:20.131Z,44.27
2023-04-16T19:22:46.993Z,44.43
2023-04-16T19:25:13.893Z,44.87
2023-04-16T19:27:41.010Z,44.77
2023-04-16T19:30:08.625Z,43.37
2023-04-16T19:32:35.625Z,44.67
2023-04-16T19:35:03.730Z,43.13
2023-04-16T19:37:30.504Z,44.67
2023-04-16T19:39:57.361Z,43.40
2023-04-16T19:42:24.221Z,45.27
2023-04-16T19:44:51.103Z,45.50
2023-04-16T19:47:17.936Z,43.93
2023-04-16T19:49:45.085Z,43.50
2023-04-16T19:52:11.855Z,42.63
2023-04-16T19:54:38.684Z,43.50
2023-04-16T19:57:06.008Z,43.97
2023-04-16T19:59:33.113Z,45.13
2023-04-16T20:02:00.117Z,42.07
2023-04-16T20:04:27.186Z,44.47
2023-04-16T20:06:54.306Z,44.63
2023-04-16T20:09:21.310Z,43.97
2023-04-16T20:11:48.144Z,46.40
2023-04-16T20:14:15.008Z,44.93
2023-04-16T20:16:43.597Z,45.90
2023-04-16T20:19:10.851Z,46.37
2023-04-16T20:21:38.175Z,45.87
2023-04-16T20:24:05.187Z,44.43
2023-04-16T20:26:34.030Z,43.63
2023-04-16T20:29:01.356Z,45.50
2023-04-16T20:31:28.267Z,46.43
2023-04-16T20:33:55.394Z,44.77
2023-04-16T20:36:22.189Z,46.23
2023-04-16T20:38:51.107Z,44.87
2023-04-16T20:41:22.379Z,46.70
2023-04-16T20:43:52.863Z,46.13
2023-04-16T20:46:24.158Z,46.00
2023-04-16T20:48:51.822Z,45.43
2023-04-16T20:51:18.683Z,47.67
2023-04-16T20:53:45.595Z,46.63
2023-04-16T20:56:14.944Z,47.00
2023-04-16T20:58:42.670Z,46.07
2023-04-16T21:01:09.646Z,45.93
2023-04-16T21:03:37.077Z,45.37
2023-04-16T21:06:04.343Z,46.10
2023-04-16T21:08:31.262Z,44.77
2023-04-16T21:10:58.112Z,47.13
2023-04-16T21:13:25.072Z,46.33
2023-04-16T21:15:52.112Z,47.27
2023-04-16T21:18:18.941Z,46.23
2023-04-16T21:20:45.847Z,46.50
2023-04-16T21:23:12.655Z,46.53
2023-04-16T21:25:39.495Z,46.57
2023-04-16T21:28:06.352Z,48.40
2023-04-16T21:30:33.249Z,49.10
2023-04-16T21:33:00.080Z,48.00
2023-04-16T21:35:26.967Z,46.10
2023-04-16T21:37:53.793Z,47.77
2023-04-16T21:40:20.873Z,48.37
2023-04-16T21:42:47.704Z,45.93
2023-04-16T21:45:14.611Z,44.10
2023-04-16T21:47:41.541Z,45.43
2023-04-16T21:50:08.858Z,44.80
2023-04-16T21:52:40.419Z,44.87
2023-04-16T21:55:09.425Z,43.83
2023-04-16T21:57:36.477Z,46.43
2023-04-16T22:00:09.252Z,43.13
2023-04-16T22:02:36.317Z,43.47
2023-04-16T22:05:03.397Z,43.60
2023-04-16T22:07:30.584Z,42.50
2023-04-16T22:09:57.398Z,43.77
2023-04-16T22:12:24.278Z,44.63
2023-04-16T22:17:23.736Z,44.97
2023-04-16T22:19:50.791Z,44.03
2023-04-16T22:22:17.604Z,45.73
2023-04-16T22:24:44.711Z,45.30
2023-04-16T22:27:11.573Z,45.00
2023-04-16T22:29:38.318Z,44.47
2023-04-16T22:32:05.481Z,46.53
2023-04-16T22:34:32.326Z,47.10
2023-04-16T22:37:01.367Z,47.37
2023-04-16T22:39:29.138Z,44.97
2023-04-16T22:41:56.097Z,44.40
2023-04-16T22:44:22.891Z,46.23
2023-04-16T22:46:49.651Z,45.33
2023-04-16T22:49:16.530Z,46.53
2023-04-16T22:51:43.413Z,47.13
2023-04-16T22:54:13.277Z,44.90
2023-04-16T22:56:41.237Z,44.63
2023-04-16T22:59:08.009Z,46.37
2023-04-16T23:01:35.355Z,45.93
2023-04-16T23:04:02.338Z,44.13
2023-04-16T23:06:29.144Z,46.60
2023-04-16T23:08:55.927Z,46.57
2023-04-16T23:11:22.938Z,46.30
2023-04-16T23:13:49.700Z,46.00
2023-04-16T23:16:16.508Z,46.20
2023-04-16T23:18:43.320Z,46.97
2023-04-16T23:21:10.119Z,46.97
2023-04-16T23:23:37.002Z,45.50
2023-04-16T23:26:04.050Z,46.57
2023-04-16T23:28:30.860Z,46.87
2023-04-16T23:30:57.641Z,49.43
2023-04-16T23:33:24.457Z,46.80
2023-04-16T23:35:51.335Z,48.47
2023-04-16T23:38:18.306Z,46.47
2023-04-16T23:40:45.326Z,46.87
2023-04-16T23:43:12.148Z,48.23
2023-04-16T23:45:39.048Z,48.93
2023-04-16T23:48:06.253Z,50.17
2023-04-16T23:50:33.106Z,50.17
2023-04-16T23:52:59.909Z,48.03
2023-04-16T23:55:26.684Z,48.70
2023-04-16T23:57:53.452Z,50.13
